sensor_id;sensor_type;location;lat;lon;timestamp;P1;durP1;ratioP1;P2;durP2;ratioP2
31126;SDS011;17775;57.948;12.514;2023-07-08T00:00:51;16.88;;;5.55;;
31126;SDS011;17775;57.948;12.514;2023-07-08T00:03:18;19.40;;;5.50;;
31126;SDS011;17775;57.948;12.514;2023-07-08T00:05:45;17.58;;;5.22;;
31126;SDS011;17775;57.948;12.514;2023-07-08T00:08:16;15.43;;;6.10;;
31126;SDS011;17775;57.948;12.514;2023-07-08T00:10:42;18.05;;;5.63;;
31126;SDS011;17775;57.948;12.514;2023-07-08T00:13:11;11.25;;;5.82;;
31126;SDS011;17775;57.948;12.514;2023-07-08T00:15:39;19.15;;;5.38;;
31126;SDS011;17775;57.948;12.514;2023-07-08T00:18:12;13.55;;;5.45;;
31126;SDS011;17775;57.948;12.514;2023-07-08T00:20:41;15.38;;;5.25;;
31126;SDS011;17775;57.948;12.514;2023-07-08T00:23:11;14.52;;;5.55;;
31126;SDS011;17775;57.948;12.514;2023-07-08T00:25:37;13.40;;;5.50;;
31126;SDS011;17775;57.948;12.514;2023-07-08T00:28:08;14.77;;;5.70;;
31126;SDS011;17775;57.948;12.514;2023-07-08T00:30:35;16.95;;;5.43;;
31126;SDS011;17775;57.948;12.514;2023-07-08T00:33:01;14.40;;;6.03;;
31126;SDS011;17775;57.948;12.514;2023-07-08T00:37:54;19.98;;;6.45;;
31126;SDS011;17775;57.948;12.514;2023-07-08T00:40:31;18.88;;;5.75;;
31126;SDS011;17775;57.948;12.514;2023-07-08T00:42:59;13.65;;;6.20;;
31126;SDS011;17775;57.948;12.514;2023-07-08T00:45:31;11.43;;;5.32;;
31126;SDS011;17775;57.948;12.514;2023-07-08T00:48:05;13.18;;;5.55;;
31126;SDS011;17775;57.948;12.514;2023-07-08T00:50:31;20.67;;;6.10;;
31126;SDS011;17775;57.948;12.514;2023-07-08T00:55:44;14.50;;;5.32;;
31126;SDS011;17775;57.948;12.514;2023-07-08T00:58:10;15.13;;;5.32;;
31126;SDS011;17775;57.948;12.514;2023-07-08T01:00:36;13.02;;;5.30;;
31126;SDS011;17775;57.948;12.514;2023-07-08T01:03:03;10.02;;;4.75;;
31126;SDS011;17775;57.948;12.514;2023-07-08T01:05:30;18.08;;;6.03;;
31126;SDS011;17775;57.948;12.514;2023-07-08T01:08:00;11.57;;;5.65;;
31126;SDS011;17775;57.948;12.514;2023-07-08T01:10:34;19.38;;;6.07;;
31126;SDS011;17775;57.948;12.514;2023-07-08T01:13:04;15.60;;;5.38;;
31126;SDS011;17775;57.948;12.514;2023-07-08T01:15:36;21.10;;;6.28;;
31126;SDS011;17775;57.948;12.514;2023-07-08T01:18:05;14.57;;;6.20;;
31126;SDS011;17775;57.948;12.514;2023-07-08T01:20:32;16.33;;;5.60;;
31126;SDS011;17775;57.948;12.514;2023-07-08T01:22:58;12.23;;;5.13;;
31126;SDS011;17775;57.948;12.514;2023-07-08T01:25:25;14.55;;;6.13;;
31126;SDS011;17775;57.948;12.514;2023-07-08T01:27:53;12.27;;;5.32;;
31126;SDS011;17775;57.948;12.514;2023-07-08T01:30:20;16.17;;;5.68;;
31126;SDS011;17775;57.948;12.514;2023-07-08T01:32:51;14.35;;;5.43;;
31126;SDS011;17775;57.948;12.514;2023-07-08T01:35:18;17.30;;;6.07;;
31126;SDS011;17775;57.948;12.514;2023-07-08T01:37:52;11.73;;;6.10;;
31126;SDS011;17775;57.948;12.514;2023-07-08T01:40:24;15.20;;;5.45;;
31126;SDS011;17775;57.948;12.514;2023-07-08T01:42:51;16.88;;;6.35;;
31126;SDS011;17775;57.948;12.514;2023-07-08T01:45:19;16.60;;;5.88;;
31126;SDS011;17775;57.948;12.514;2023-07-08T01:47:59;13.13;;;5.60;;
31126;SDS011;17775;57.948;12.514;2023-07-08T01:50:26;21.23;;;7.38;;
31126;SDS011;17775;57.948;12.514;2023-07-08T01:52:53;13.25;;;5.35;;
31126;SDS011;17775;57.948;12.514;2023-07-08T01:55:23;18.23;;;6.22;;
31126;SDS011;17775;57.948;12.514;2023-07-08T01:57:53;10.95;;;5.47;;
31126;SDS011;17775;57.948;12.514;2023-07-08T02:00:20;12.25;;;5.38;;
31126;SDS011;17775;57.948;12.514;2023-07-08T02:02:47;16.88;;;4.90;;
31126;SDS011;17775;57.948;12.514;2023-07-08T02:05:14;17.35;;;6.13;;
31126;SDS011;17775;57.948;12.514;2023-07-08T02:07:40;10.15;;;5.05;;
31126;SDS011;17775;57.948;12.514;2023-07-08T02:10:07;14.93;;;6.40;;
31126;SDS011;17775;57.948;12.514;2023-07-08T02:12:34;15.55;;;6.05;;
31126;SDS011;17775;57.948;12.514;2023-07-08T02:15:00;15.30;;;5.30;;
31126;SDS011;17775;57.948;12.514;2023-07-08T02:17:27;13.55;;;5.43;;
31126;SDS011;17775;57.948;12.514;2023-07-08T02:19:56;13.35;;;5.88;;
31126;SDS011;17775;57.948;12.514;2023-07-08T02:22:23;8.20;;;5.45;;
31126;SDS011;17775;57.948;12.514;2023-07-08T02:24:49;22.33;;;7.25;;
31126;SDS011;17775;57.948;12.514;2023-07-08T02:27:16;9.02;;;5.43;;
31126;SDS011;17775;57.948;12.514;2023-07-08T02:29:43;12.70;;;5.07;;
31126;SDS011;17775;57.948;12.514;2023-07-08T02:32:09;13.38;;;4.85;;
31126;SDS011;17775;57.948;12.514;2023-07-08T02:34:36;11.65;;;5.97;;
31126;SDS011;17775;57.948;12.514;2023-07-08T02:37:03;12.68;;;5.60;;
31126;SDS011;17775;57.948;12.514;2023-07-08T02:39:30;18.85;;;6.70;;
31126;SDS011;17775;57.948;12.514;2023-07-08T02:41:56;19.50;;;6.18;;
31126;SDS011;17775;57.948;12.514;2023-07-08T02:44:23;12.82;;;5.72;;
31126;SDS011;17775;57.948;12.514;2023-07-08T02:46:49;12.75;;;5.78;;
31126;SDS011;17775;57.948;12.514;2023-07-08T02:49:16;13.43;;;5.53;;
31126;SDS011;17775;57.948;12.514;2023-07-08T02:51:42;14.88;;;5.82;;
31126;SDS011;17775;57.948;12.514;2023-07-08T02:54:09;11.63;;;5.07;;
31126;SDS011;17775;57.948;12.514;2023-07-08T02:56:35;16.98;;;5.57;;
31126;SDS011;17775;57.948;12.514;2023-07-08T02:59:02;12.93;;;5.47;;
31126;SDS011;17775;57.948;12.514;2023-07-08T03:01:28;18.25;;;5.60;;
31126;SDS011;17775;57.948;12.514;2023-07-08T03:03:55;20.25;;;6.63;;
31126;SDS011;17775;57.948;12.514;2023-07-08T03:06:24;11.82;;;5.80;;
31126;SDS011;17775;57.948;12.514;2023-07-08T03:08:51;15.48;;;6.60;;
31126;SDS011;17775;57.948;12.514;2023-07-08T03:11:18;20.35;;;6.03;;
31126;SDS011;17775;57.948;12.514;2023-07-08T03:13:44;15.07;;;6.55;;
31126;SDS011;17775;57.948;12.514;2023-07-08T03:16:11;18.67;;;7.10;;
31126;SDS011;17775;57.948;12.514;2023-07-08T03:18:40;8.60;;;5.72;;
31126;SDS011;17775;57.948;12.514;2023-07-08T03:21:14;18.73;;;6.60;;
31126;SDS011;17775;57.948;12.514;2023-07-08T03:23:43;20.90;;;6.68;;
31126;SDS011;17775;57.948;12.514;2023-07-08T03:26:13;18.30;;;6.70;;
31126;SDS011;17775;57.948;12.514;2023-07-08T03:28:40;16.33;;;6.43;;
31126;SDS011;17775;57.948;12.514;2023-07-08T03:31:08;17.25;;;7.18;;
31126;SDS011;17775;57.948;12.514;2023-07-08T03:33:35;15.43;;;6.47;;
31126;SDS011;17775;57.948;12.514;2023-07-08T03:36:02;13.45;;;5.95;;
31126;SDS011;17775;57.948;12.514;2023-07-08T03:38:28;18.10;;;6.82;;
31126;SDS011;17775;57.948;12.514;2023-07-08T03:40:55;11.02;;;6.07;;
31126;SDS011;17775;57.948;12.514;2023-07-08T03:43:21;13.95;;;6.20;;
31126;SDS011;17775;57.948;12.514;2023-07-08T03:45:48;13.88;;;6.07;;
31126;SDS011;17775;57.948;12.514;2023-07-08T03:48:14;15.25;;;6.03;;
31126;SDS011;17775;57.948;12.514;2023-07-08T03:50:41;13.55;;;5.72;;
31126;SDS011;17775;57.948;12.514;2023-07-08T03:53:08;14.73;;;6.20;;
31126;SDS011;17775;57.948;12.514;2023-07-08T03:55:35;16.67;;;7.18;;
31126;SDS011;17775;57.948;12.514;2023-07-08T03:58:01;17.02;;;6.10;;
31126;SDS011;17775;57.948;12.514;2023-07-08T04:00:28;19.55;;;6.93;;
31126;SDS011;17775;57.948;12.514;2023-07-08T04:02:54;16.63;;;7.15;;
31126;SDS011;17775;57.948;12.514;2023-07-08T04:05:21;22.13;;;7.90;;
31126;SDS011;17775;57.948;12.514;2023-07-08T04:07:48;16.73;;;6.95;;
31126;SDS011;17775;57.948;12.514;2023-07-08T04:10:15;16.60;;;7.50;;
31126;SDS011;17775;57.948;12.514;2023-07-08T04:12:43;21.45;;;7.38;;
31126;SDS011;17775;57.948;12.514;2023-07-08T04:15:10;17.23;;;6.60;;
31126;SDS011;17775;57.948;12.514;2023-07-08T04:17:41;17.98;;;6.43;;
31126;SDS011;17775;57.948;12.514;2023-07-08T04:20:09;22.50;;;7.43;;
31126;SDS011;17775;57.948;12.514;2023-07-08T04:22:37;15.73;;;6.38;;
31126;SDS011;17775;57.948;12.514;2023-07-08T04:25:03;24.98;;;7.43;;
31126;SDS011;17775;57.948;12.514;2023-07-08T04:27:30;14.50;;;6.10;;
31126;SDS011;17775;57.948;12.514;2023-07-08T04:29:57;17.08;;;6.30;;
31126;SDS011;17775;57.948;12.514;2023-07-08T04:32:24;19.33;;;6.20;;
31126;SDS011;17775;57.948;12.514;2023-07-08T04:34:52;23.20;;;6.45;;
31126;SDS011;17775;57.948;12.514;2023-07-08T04:37:18;14.10;;;5.93;;
31126;SDS011;17775;57.948;12.514;2023-07-08T04:39:45;17.98;;;6.53;;
31126;SDS011;17775;57.948;12.514;2023-07-08T04:42:13;16.38;;;5.63;;
31126;SDS011;17775;57.948;12.514;2023-07-08T04:44:42;16.42;;;6.57;;
31126;SDS011;17775;57.948;12.514;2023-07-08T04:47:09;18.27;;;5.60;;
31126;SDS011;17775;57.948;12.514;2023-07-08T04:52:09;19.40;;;5.55;;
31126;SDS011;17775;57.948;12.514;2023-07-08T04:54:36;19.25;;;6.03;;
31126;SDS011;17775;57.948;12.514;2023-07-08T04:57:03;31.33;;;6.97;;
31126;SDS011;17775;57.948;12.514;2023-07-08T04:59:30;17.33;;;5.97;;
31126;SDS011;17775;57.948;12.514;2023-07-08T05:02:00;17.98;;;5.85;;
31126;SDS011;17775;57.948;12.514;2023-07-08T05:04:27;16.30;;;5.40;;
31126;SDS011;17775;57.948;12.514;2023-07-08T05:06:53;15.80;;;5.05;;
31126;SDS011;17775;57.948;12.514;2023-07-08T05:09:20;16.67;;;5.70;;
31126;SDS011;17775;57.948;12.514;2023-07-08T05:11:48;13.90;;;5.82;;
31126;SDS011;17775;57.948;12.514;2023-07-08T05:14:15;16.20;;;5.78;;
31126;SDS011;17775;57.948;12.514;2023-07-08T05:16:41;11.88;;;5.30;;
31126;SDS011;17775;57.948;12.514;2023-07-08T05:19:08;11.80;;;5.28;;
31126;SDS011;17775;57.948;12.514;2023-07-08T05:21:38;19.60;;;5.25;;
31126;SDS011;17775;57.948;12.514;2023-07-08T05:24:05;16.42;;;5.75;;
31126;SDS011;17775;57.948;12.514;2023-07-08T05:26:32;21.67;;;5.82;;
31126;SDS011;17775;57.948;12.514;2023-07-08T05:28:59;14.63;;;5.22;;
31126;SDS011;17775;57.948;12.514;2023-07-08T05:31:26;15.18;;;5.75;;
31126;SDS011;17775;57.948;12.514;2023-07-08T05:34:12;22.27;;;7.05;;
31126;SDS011;17775;57.948;12.514;2023-07-08T05:36:40;11.73;;;5.53;;
31126;SDS011;17775;57.948;12.514;2023-07-08T05:39:06;16.23;;;6.70;;
31126;SDS011;17775;57.948;12.514;2023-07-08T05:41:34;20.42;;;5.80;;
31126;SDS011;17775;57.948;12.514;2023-07-08T05:44:00;15.60;;;5.60;;
31126;SDS011;17775;57.948;12.514;2023-07-08T05:46:27;19.13;;;5.50;;
31126;SDS011;17775;57.948;12.514;2023-07-08T05:48:53;19.77;;;6.03;;
31126;SDS011;17775;57.948;12.514;2023-07-08T05:51:20;12.43;;;5.72;;
31126;SDS011;17775;57.948;12.514;2023-07-08T05:53:46;13.15;;;5.43;;
31126;SDS011;17775;57.948;12.514;2023-07-08T05:56:13;15.80;;;5.43;;
31126;SDS011;17775;57.948;12.514;2023-07-08T05:58:40;17.70;;;5.57;;
31126;SDS011;17775;57.948;12.514;2023-07-08T06:01:06;14.93;;;5.88;;
31126;SDS011;17775;57.948;12.514;2023-07-08T06:03:33;21.02;;;4.80;;
31126;SDS011;17775;57.948;12.514;2023-07-08T06:06:02;16.83;;;5.72;;
31126;SDS011;17775;57.948;12.514;2023-07-08T06:08:34;17.50;;;5.68;;
31126;SDS011;17775;57.948;12.514;2023-07-08T06:11:00;17.77;;;5.20;;
31126;SDS011;17775;57.948;12.514;2023-07-08T06:13:27;16.13;;;4.95;;
31126;SDS011;17775;57.948;12.514;2023-07-08T06:15:54;11.88;;;5.32;;
31126;SDS011;17775;57.948;12.514;2023-07-08T06:18:20;12.45;;;5.22;;
31126;SDS011;17775;57.948;12.514;2023-07-08T06:20:51;19.30;;;6.75;;
31126;SDS011;17775;57.948;12.514;2023-07-08T06:23:18;13.20;;;5.00;;
31126;SDS011;17775;57.948;12.514;2023-07-08T06:25:44;15.02;;;5.47;;
31126;SDS011;17775;57.948;12.514;2023-07-08T06:28:11;10.73;;;4.82;;
31126;SDS011;17775;57.948;12.514;2023-07-08T06:30:37;13.45;;;5.70;;
31126;SDS011;17775;57.948;12.514;2023-07-08T06:33:04;13.13;;;4.70;;
31126;SDS011;17775;57.948;12.514;2023-07-08T06:35:30;14.05;;;4.72;;
31126;SDS011;17775;57.948;12.514;2023-07-08T06:37:57;14.05;;;4.47;;
31126;SDS011;17775;57.948;12.514;2023-07-08T06:40:24;13.60;;;4.93;;
31126;SDS011;17775;57.948;12.514;2023-07-08T06:42:50;18.17;;;4.70;;
31126;SDS011;17775;57.948;12.514;2023-07-08T06:45:17;18.88;;;5.82;;
31126;SDS011;17775;57.948;12.514;2023-07-08T06:47:43;10.73;;;4.07;;
31126;SDS011;17775;57.948;12.514;2023-07-08T06:50:10;14.38;;;5.28;;
31126;SDS011;17775;57.948;12.514;2023-07-08T06:52:36;14.48;;;5.07;;
31126;SDS011;17775;57.948;12.514;2023-07-08T06:55:04;13.77;;;4.97;;
31126;SDS011;17775;57.948;12.514;2023-07-08T06:57:32;12.40;;;4.70;;
31126;SDS011;17775;57.948;12.514;2023-07-08T07:00:01;16.00;;;5.47;;
31126;SDS011;17775;57.948;12.514;2023-07-08T07:02:27;14.00;;;5.05;;
31126;SDS011;17775;57.948;12.514;2023-07-08T07:04:54;10.70;;;4.78;;
31126;SDS011;17775;57.948;12.514;2023-07-08T07:07:21;12.70;;;4.85;;
31126;SDS011;17775;57.948;12.514;2023-07-08T07:09:48;11.05;;;4.75;;
31126;SDS011;17775;57.948;12.514;2023-07-08T07:12:14;11.45;;;4.50;;
31126;SDS011;17775;57.948;12.514;2023-07-08T07:14:41;11.93;;;4.63;;
31126;SDS011;17775;57.948;12.514;2023-07-08T07:17:10;15.02;;;4.97;;
31126;SDS011;17775;57.948;12.514;2023-07-08T07:19:37;13.95;;;4.43;;
31126;SDS011;17775;57.948;12.514;2023-07-08T07:22:04;12.82;;;5.07;;
31126;SDS011;17775;57.948;12.514;2023-07-08T07:24:31;12.82;;;5.00;;
31126;SDS011;17775;57.948;12.514;2023-07-08T07:26:57;13.55;;;4.57;;
31126;SDS011;17775;57.948;12.514;2023-07-08T07:29:24;12.02;;;4.00;;
31126;SDS011;17775;57.948;12.514;2023-07-08T07:31:51;10.90;;;4.10;;
31126;SDS011;17775;57.948;12.514;2023-07-08T07:34:18;12.48;;;4.60;;
31126;SDS011;17775;57.948;12.514;2023-07-08T07:36:44;9.48;;;4.38;;
31126;SDS011;17775;57.948;12.514;2023-07-08T07:39:11;9.77;;;4.55;;
31126;SDS011;17775;57.948;12.514;2023-07-08T07:41:37;11.45;;;4.18;;
31126;SDS011;17775;57.948;12.514;2023-07-08T07:44:04;10.25;;;4.10;;
31126;SDS011;17775;57.948;12.514;2023-07-08T07:46:31;8.27;;;4.38;;
31126;SDS011;17775;57.948;12.514;2023-07-08T07:48:57;11.23;;;5.05;;
31126;SDS011;17775;57.948;12.514;2023-07-08T07:51:24;6.93;;;3.83;;
31126;SDS011;17775;57.948;12.514;2023-07-08T07:53:50;13.40;;;4.30;;
31126;SDS011;17775;57.948;12.514;2023-07-08T07:56:17;13.70;;;4.85;;
31126;SDS011;17775;57.948;12.514;2023-07-08T07:58:44;9.70;;;3.58;;
31126;SDS011;17775;57.948;12.514;2023-07-08T08:01:10;14.93;;;5.68;;
31126;SDS011;17775;57.948;12.514;2023-07-08T08:03:39;10.65;;;3.70;;
31126;SDS011;17775;57.948;12.514;2023-07-08T08:06:06;8.13;;;3.92;;
31126;SDS011;17775;57.948;12.514;2023-07-08T08:08:32;10.38;;;3.78;;
31126;SDS011;17775;57.948;12.514;2023-07-08T08:11:03;9.90;;;3.97;;
31126;SDS011;17775;57.948;12.514;2023-07-08T08:13:29;10.85;;;3.67;;
31126;SDS011;17775;57.948;12.514;2023-07-08T08:15:56;7.72;;;3.50;;
31126;SDS011;17775;57.948;12.514;2023-07-08T08:18:24;12.80;;;4.45;;
31126;SDS011;17775;57.948;12.514;2023-07-08T08:20:51;10.85;;;4.30;;
31126;SDS011;17775;57.948;12.514;2023-07-08T08:23:17;10.82;;;3.78;;
31126;SDS011;17775;57.948;12.514;2023-07-08T08:25:43;11.50;;;4.20;;
31126;SDS011;17775;57.948;12.514;2023-07-08T08:28:10;6.78;;;3.58;;
31126;SDS011;17775;57.948;12.514;2023-07-08T08:30:36;6.03;;;3.17;;
31126;SDS011;17775;57.948;12.514;2023-07-08T08:33:05;9.73;;;3.92;;
31126;SDS011;17775;57.948;12.514;2023-07-08T08:35:32;11.50;;;3.58;;
31126;SDS011;17775;57.948;12.514;2023-07-08T08:37:58;10.70;;;3.88;;
31126;SDS011;17775;57.948;12.514;2023-07-08T08:40:25;8.45;;;4.07;;
31126;SDS011;17775;57.948;12.514;2023-07-08T08:45:24;7.93;;;3.83;;
31126;SDS011;17775;57.948;12.514;2023-07-08T08:47:59;8.15;;;3.80;;
31126;SDS011;17775;57.948;12.514;2023-07-08T08:50:31;8.73;;;3.95;;
31126;SDS011;17775;57.948;12.514;2023-07-08T08:52:59;11.30;;;3.65;;
31126;SDS011;17775;57.948;12.514;2023-07-08T08:55:27;6.07;;;3.35;;
31126;SDS011;17775;57.948;12.514;2023-07-08T08:57:59;8.35;;;3.42;;
31126;SDS011;17775;57.948;12.514;2023-07-08T09:00:30;5.75;;;3.05;;
31126;SDS011;17775;57.948;12.514;2023-07-08T09:03:03;6.85;;;3.05;;
31126;SDS011;17775;57.948;12.514;2023-07-08T09:05:31;9.35;;;3.33;;
31126;SDS011;17775;57.948;12.514;2023-07-08T09:08:03;7.50;;;3.22;;
31126;SDS011;17775;57.948;12.514;2023-07-08T09:13:06;7.43;;;3.67;;
31126;SDS011;17775;57.948;12.514;2023-07-08T09:15:33;6.82;;;3.58;;
31126;SDS011;17775;57.948;12.514;2023-07-08T09:18:03;7.53;;;2.78;;
31126;SDS011;17775;57.948;12.514;2023-07-08T09:20:36;7.43;;;3.13;;
31126;SDS011;17775;57.948;12.514;2023-07-08T09:23:09;9.77;;;3.92;;
31126;SDS011;17775;57.948;12.514;2023-07-08T09:25:42;4.65;;;2.63;;
31126;SDS011;17775;57.948;12.514;2023-07-08T09:28:12;7.13;;;3.08;;
31126;SDS011;17775;57.948;12.514;2023-07-08T09:30:41;5.70;;;3.05;;
31126;SDS011;17775;57.948;12.514;2023-07-08T09:33:08;7.63;;;2.97;;
31126;SDS011;17775;57.948;12.514;2023-07-08T09:35:40;5.13;;;2.88;;
31126;SDS011;17775;57.948;12.514;2023-07-08T09:38:07;6.57;;;2.38;;
31126;SDS011;17775;57.948;12.514;2023-07-08T09:40:34;4.63;;;2.88;;
31126;SDS011;17775;57.948;12.514;2023-07-08T09:43:16;4.45;;;2.45;;
31126;SDS011;17775;57.948;12.514;2023-07-08T09:45:47;5.40;;;2.80;;
31126;SDS011;17775;57.948;12.514;2023-07-08T09:48:15;5.03;;;3.08;;
31126;SDS011;17775;57.948;12.514;2023-07-08T09:50:43;7.30;;;3.28;;
31126;SDS011;17775;57.948;12.514;2023-07-08T09:53:13;5.78;;;3.10;;
31126;SDS011;17775;57.948;12.514;2023-07-08T09:55:40;6.55;;;3.17;;
31126;SDS011;17775;57.948;12.514;2023-07-08T09:58:11;4.07;;;2.78;;
31126;SDS011;17775;57.948;12.514;2023-07-08T10:00:39;6.75;;;2.78;;
31126;SDS011;17775;57.948;12.514;2023-07-08T10:03:40;5.80;;;2.83;;
31126;SDS011;17775;57.948;12.514;2023-07-08T10:06:02;9.90;;;3.13;;
31126;SDS011;17775;57.948;12.514;2023-07-08T10:08:37;6.32;;;3.03;;
31126;SDS011;17775;57.948;12.514;2023-07-08T10:11:12;4.80;;;2.90;;
31126;SDS011;17775;57.948;12.514;2023-07-08T10:13:42;4.72;;;2.50;;
31126;SDS011;17775;57.948;12.514;2023-07-08T10:16:24;6.50;;;2.70;;
31126;SDS011;17775;57.948;12.514;2023-07-08T10:18:52;6.88;;;2.75;;
31126;SDS011;17775;57.948;12.514;2023-07-08T10:26:40;5.80;;;2.42;;
31126;SDS011;17775;57.948;12.514;2023-07-08T10:34:52;8.00;;;3.28;;
31126;SDS011;17775;57.948;12.514;2023-07-08T10:53:04;6.53;;;2.75;;
31126;SDS011;17775;57.948;12.514;2023-07-08T11:01:06;5.88;;;2.38;;
31126;SDS011;17775;57.948;12.514;2023-07-08T11:06:11;3.80;;;2.40;;
31126;SDS011;17775;57.948;12.514;2023-07-08T11:08:42;4.43;;;2.90;;
31126;SDS011;17775;57.948;12.514;2023-07-08T11:11:11;5.32;;;2.45;;
31126;SDS011;17775;57.948;12.514;2023-07-08T11:13:52;6.28;;;2.88;;
31126;SDS011;17775;57.948;12.514;2023-07-08T11:16:30;5.32;;;2.40;;
31126;SDS011;17775;57.948;12.514;2023-07-08T11:19:08;4.03;;;2.10;;
31126;SDS011;17775;57.948;12.514;2023-07-08T11:21:40;3.28;;;2.22;;
31126;SDS011;17775;57.948;12.514;2023-07-08T11:26:45;4.53;;;2.63;;
31126;SDS011;17775;57.948;12.514;2023-07-08T11:29:19;6.07;;;2.42;;
31126;SDS011;17775;57.948;12.514;2023-07-08T11:31:46;5.07;;;2.40;;
31126;SDS011;17775;57.948;12.514;2023-07-08T11:34:13;4.45;;;2.53;;
31126;SDS011;17775;57.948;12.514;2023-07-08T11:36:41;4.82;;;2.25;;
31126;SDS011;17775;57.948;12.514;2023-07-08T11:44:44;5.15;;;2.58;;
31126;SDS011;17775;57.948;12.514;2023-07-08T11:47:15;7.18;;;2.50;;
31126;SDS011;17775;57.948;12.514;2023-07-08T11:49:46;8.00;;;2.45;;
31126;SDS011;17775;57.948;12.514;2023-07-08T11:52:14;4.18;;;2.13;;
31126;SDS011;17775;57.948;12.514;2023-07-08T11:54:46;3.38;;;2.25;;
31126;SDS011;17775;57.948;12.514;2023-07-08T11:59:40;4.93;;;2.30;;
31126;SDS011;17775;57.948;12.514;2023-07-08T12:02:17;5.55;;;2.40;;
31126;SDS011;17775;57.948;12.514;2023-07-08T12:05:18;5.53;;;2.38;;
31126;SDS011;17775;57.948;12.514;2023-07-08T12:07:38;3.28;;;2.00;;
31126;SDS011;17775;57.948;12.514;2023-07-08T12:12:40;4.45;;;2.50;;
31126;SDS011;17775;57.948;12.514;2023-07-08T12:15:24;6.63;;;3.10;;
31126;SDS011;17775;57.948;12.514;2023-07-08T12:17:52;5.05;;;3.05;;
31126;SDS011;17775;57.948;12.514;2023-07-08T12:20:21;5.13;;;2.78;;
31126;SDS011;17775;57.948;12.514;2023-07-08T12:22:48;7.28;;;2.65;;
31126;SDS011;17775;57.948;12.514;2023-07-08T12:25:15;3.20;;;2.50;;
31126;SDS011;17775;57.948;12.514;2023-07-08T12:27:44;4.35;;;2.58;;
31126;SDS011;17775;57.948;12.514;2023-07-08T12:30:11;2.92;;;2.58;;
31126;SDS011;17775;57.948;12.514;2023-07-08T12:32:38;3.47;;;2.47;;
31126;SDS011;17775;57.948;12.514;2023-07-08T12:35:05;6.13;;;2.38;;
31126;SDS011;17775;57.948;12.514;2023-07-08T12:37:34;3.67;;;2.63;;
31126;SDS011;17775;57.948;12.514;2023-07-08T12:40:01;3.67;;;2.35;;
31126;SDS011;17775;57.948;12.514;2023-07-08T12:42:32;5.47;;;3.05;;
31126;SDS011;17775;57.948;12.514;2023-07-08T12:44:58;4.22;;;2.95;;
31126;SDS011;17775;57.948;12.514;2023-07-08T12:47:25;3.60;;;2.70;;
31126;SDS011;17775;57.948;12.514;2023-07-08T12:49:54;4.53;;;2.72;;
31126;SDS011;17775;57.948;12.514;2023-07-08T12:52:22;4.05;;;2.60;;
31126;SDS011;17775;57.948;12.514;2023-07-08T12:54:49;3.72;;;2.53;;
31126;SDS011;17775;57.948;12.514;2023-07-08T12:57:16;4.47;;;2.95;;
31126;SDS011;17775;57.948;12.514;2023-07-08T12:59:43;4.57;;;2.90;;
31126;SDS011;17775;57.948;12.514;2023-07-08T13:02:17;4.35;;;2.50;;
31126;SDS011;17775;57.948;12.514;2023-07-08T13:04:45;4.07;;;2.30;;
31126;SDS011;17775;57.948;12.514;2023-07-08T13:07:17;3.35;;;2.55;;
31126;SDS011;17775;57.948;12.514;2023-07-08T13:09:51;5.40;;;2.38;;
31126;SDS011;17775;57.948;12.514;2023-07-08T13:12:18;4.13;;;2.50;;
31126;SDS011;17775;57.948;12.514;2023-07-08T13:14:51;4.25;;;2.65;;
31126;SDS011;17775;57.948;12.514;2023-07-08T13:17:19;4.03;;;2.85;;
31126;SDS011;17775;57.948;12.514;2023-07-08T13:19:45;3.38;;;2.65;;
31126;SDS011;17775;57.948;12.514;2023-07-08T13:22:14;4.00;;;2.30;;
31126;SDS011;17775;57.948;12.514;2023-07-08T13:24:42;4.95;;;2.60;;
31126;SDS011;17775;57.948;12.514;2023-07-08T13:27:12;4.25;;;2.70;;
31126;SDS011;17775;57.948;12.514;2023-07-08T13:29:39;3.67;;;2.50;;
31126;SDS011;17775;57.948;12.514;2023-07-08T13:32:05;4.90;;;2.85;;
31126;SDS011;17775;57.948;12.514;2023-07-08T13:34:32;4.55;;;2.97;;
31126;SDS011;17775;57.948;12.514;2023-07-08T13:37:00;4.35;;;3.30;;
31126;SDS011;17775;57.948;12.514;2023-07-08T13:39:29;4.57;;;2.88;;
31126;SDS011;17775;57.948;12.514;2023-07-08T13:41:57;6.28;;;2.60;;
31126;SDS011;17775;57.948;12.514;2023-07-08T13:44:24;4.15;;;3.00;;
31126;SDS011;17775;57.948;12.514;2023-07-08T13:51:48;3.60;;;2.55;;
31126;SDS011;17775;57.948;12.514;2023-07-08T13:54:22;4.03;;;2.85;;
31126;SDS011;17775;57.948;12.514;2023-07-08T13:56:50;4.22;;;2.78;;
31126;SDS011;17775;57.948;12.514;2023-07-08T13:59:23;4.18;;;2.60;;
31126;SDS011;17775;57.948;12.514;2023-07-08T14:01:50;4.18;;;2.88;;
31126;SDS011;17775;57.948;12.514;2023-07-08T14:04:19;3.25;;;2.85;;
31126;SDS011;17775;57.948;12.514;2023-07-08T14:06:48;4.40;;;2.70;;
31126;SDS011;17775;57.948;12.514;2023-07-08T14:09:16;3.40;;;2.58;;
31126;SDS011;17775;57.948;12.514;2023-07-08T14:11:43;3.22;;;2.53;;
31126;SDS011;17775;57.948;12.514;2023-07-08T14:14:10;3.38;;;2.75;;
31126;SDS011;17775;57.948;12.514;2023-07-08T14:16:38;4.72;;;2.97;;
31126;SDS011;17775;57.948;12.514;2023-07-08T14:19:06;3.60;;;3.17;;
31126;SDS011;17775;57.948;12.514;2023-07-08T14:21:36;4.13;;;2.58;;
31126;SDS011;17775;57.948;12.514;2023-07-08T14:24:08;3.83;;;2.88;;
31126;SDS011;17775;57.948;12.514;2023-07-08T14:26:45;2.95;;;2.58;;
31126;SDS011;17775;57.948;12.514;2023-07-08T14:29:12;4.93;;;3.00;;
31126;SDS011;17775;57.948;12.514;2023-07-08T14:31:39;4.68;;;2.90;;
31126;SDS011;17775;57.948;12.514;2023-07-08T14:34:07;4.70;;;2.95;;
31126;SDS011;17775;57.948;12.514;2023-07-08T14:53:32;5.40;;;2.85;;
31126;SDS011;17775;57.948;12.514;2023-07-08T14:56:00;3.70;;;2.53;;
31126;SDS011;17775;57.948;12.514;2023-07-08T14:58:28;3.90;;;2.85;;
31126;SDS011;17775;57.948;12.514;2023-07-08T15:00:56;7.33;;;6.03;;
31126;SDS011;17775;57.948;12.514;2023-07-08T15:07:07;3.60;;;2.67;;
31126;SDS011;17775;57.948;12.514;2023-07-08T15:12:20;3.30;;;2.33;;
31126;SDS011;17775;57.948;12.514;2023-07-08T15:14:47;4.85;;;2.85;;
31126;SDS011;17775;57.948;12.514;2023-07-08T15:20:53;4.22;;;3.08;;
31126;SDS011;17775;57.948;12.514;2023-07-08T15:26:48;4.05;;;2.80;;
31126;SDS011;17775;57.948;12.514;2023-07-08T15:29:16;4.05;;;3.25;;
31126;SDS011;17775;57.948;12.514;2023-07-08T15:31:42;5.88;;;3.22;;
31126;SDS011;17775;57.948;12.514;2023-07-08T15:34:16;3.63;;;2.70;;
31126;SDS011;17775;57.948;12.514;2023-07-08T15:36:42;3.17;;;2.25;;
31126;SDS011;17775;57.948;12.514;2023-07-08T15:39:09;3.35;;;2.80;;
31126;SDS011;17775;57.948;12.514;2023-07-08T15:45:24;4.00;;;2.67;;
31126;SDS011;17775;57.948;12.514;2023-07-08T15:50:31;4.30;;;2.45;;
31126;SDS011;17775;57.948;12.514;2023-07-08T15:52:58;4.00;;;2.92;;
31126;SDS011;17775;57.948;12.514;2023-07-08T15:55:26;4.50;;;2.88;;
31126;SDS011;17775;57.948;12.514;2023-07-08T15:58:03;3.83;;;2.65;;
31126;SDS011;17775;57.948;12.514;2023-07-08T16:00:41;4.63;;;2.70;;
31126;SDS011;17775;57.948;12.514;2023-07-08T16:03:12;4.07;;;2.72;;
31126;SDS011;17775;57.948;12.514;2023-07-08T16:05:41;3.40;;;2.90;;
31126;SDS011;17775;57.948;12.514;2023-07-08T16:08:08;5.25;;;3.00;;
31126;SDS011;17775;57.948;12.514;2023-07-08T16:10:35;5.43;;;2.80;;
31126;SDS011;17775;57.948;12.514;2023-07-08T16:13:03;5.40;;;2.95;;
31126;SDS011;17775;57.948;12.514;2023-07-08T16:15:31;5.05;;;2.92;;
31126;SDS011;17775;57.948;12.514;2023-07-08T16:17:58;3.65;;;2.72;;